Time;durP1;ratioP1;P1;durP2;ratioP2;P2;SDS_P1;SDS_P2;PMS_P1;PMS_P2;Temp;Humidity;BMP_temperature;BMP_pressure;BME280_temperature;BME280_humidity;BME280_pressure;Samples;Min_cycle;Max_cycle;Signal;HPM_P1;HPM_P2
2023/06/05 00:00:42;;;;;;;8.02;6.28;;;;;;;22.72;58.04;96494.13;5038204;28;20068;-33
2023/06/05 00:03:07;;;;;;;8.30;7.10;;;;;;;22.60;58.01;96507.19;5036034;28;20025;-33
2023/06/05 00:05:33;;;;;;;7.18;6.15;;;;;;;22.64;57.89;96499.38;5047582;28;20057;-33
2023/06/05 00:07:58;;;;;;;6.82;6.13;;;;;;;22.53;58.34;96504.94;5041936;28;20032;-32
2023/06/05 00:10:24;;;;;;;8.10;6.80;;;;;;;22.75;58.01;96499.38;5033583;28;20018;-33
2023/06/05 00:12:50;;;;;;;8.75;6.97;;;;;;;22.79;58.08;96501.91;5034256;28;20473;-33
2023/06/05 00:15:15;;;;;;;8.35;6.68;;;;;;;22.70;58.13;96497.38;5034567;28;20543;-32
2023/06/05 00:17:41;;;;;;;7.22;6.20;;;;;;;22.77;57.80;96494.13;5034705;28;20110;-33
2023/06/05 00:20:09;;;;;;;8.98;6.68;;;;;;;22.80;58.00;96486.84;5034459;28;20108;-33
2023/06/05 00:22:35;;;;;;;10.93;7.32;;;;;;;22.78;58.27;96492.88;5048080;28;20017;-33
2023/06/05 00:25:01;;;;;;;7.85;6.95;;;;;;;22.61;58.56;96488.59;5034223;28;20496;-32
2023/06/05 00:27:27;;;;;;;10.48;6.38;;;;;;;22.69;58.31;96501.41;5034428;28;20091;-33
2023/06/05 00:29:53;;;;;;;9.27;6.72;;;;;;;22.57;58.79;96489.63;5034158;28;20024;-33
2023/06/05 00:32:18;;;;;;;8.48;6.07;;;;;;;22.67;58.29;96487.31;5033930;28;20018;-32
2023/06/05 00:34:44;;;;;;;7.78;6.03;;;;;;;22.75;57.95;96490.34;5041539;28;20035;-33
2023/06/05 00:37:13;;;;;;;6.93;6.20;;;;;;;22.72;58.07;96485.81;5038457;28;20024;-33
2023/06/05 00:39:39;;;;;;;6.78;6.03;;;;;;;22.73;57.90;96479.78;5035756;28;20021;-33
2023/06/05 00:42:04;;;;;;;8.05;6.28;;;;;;;22.84;57.72;96492.88;5034220;28;20024;-33
2023/06/05 00:44:30;;;;;;;10.25;6.45;;;;;;;22.81;57.82;96489.09;5033797;28;20362;-33
2023/06/05 00:46:55;;;;;;;9.98;6.03;;;;;;;22.83;57.75;96486.56;5035558;28;20022;-32
2023/06/05 00:49:21;;;;;;;7.07;6.03;;;;;;;22.87;57.32;96486.31;5034209;28;20032;-33
2023/06/05 00:51:47;;;;;;;7.32;6.38;;;;;;;22.80;57.78;96493.13;5040704;28;20032;-32
2023/06/05 00:54:13;;;;;;;8.80;6.38;;;;;;;22.82;57.53;96498.16;5038801;28;20545;-33
2023/06/05 00:56:42;;;;;;;7.65;6.10;;;;;;;22.54;57.84;96492.63;5034170;28;20018;-32
2023/06/05 00:59:07;;;;;;;7.95;5.93;;;;;;;22.54;57.97;96492.63;5041303;28;20033;-33
2023/06/05 01:01:34;;;;;;;7.22;6.50;;;;;;;22.80;57.61;96495.88;5040808;28;20044;-33
2023/06/05 01:04:00;;;;;;;10.00;6.40;;;;;;;22.62;58.09;96495.66;5034159;28;20021;-33
2023/06/05 01:06:28;;;;;;;8.00;6.78;;;;;;;22.66;57.74;96487.84;5033860;28;20025;-33
2023/06/05 01:08:56;;;;;;;7.65;6.35;;;;;;;22.68;57.65;96493.63;5033737;28;20028;-32
2023/06/05 01:11:37;;;;;;;8.38;6.90;;;;;;;22.64;58.23;96491.09;5033803;28;20027;-33
2023/06/05 01:14:16;;;;;;;9.18;6.72;;;;;;;22.60;58.19;96492.63;5039389;28;20023;-33
2023/06/05 01:16:44;;;;;;;9.13;6.93;;;;;;;22.77;57.44;96479.53;5032054;28;20012;-33
2023/06/05 01:19:14;;;;;;;9.40;6.78;;;;;;;22.65;57.66;96483.56;5036156;28;20032;-33
2023/06/05 01:21:40;;;;;;;8.65;6.60;;;;;;;22.60;57.79;96487.09;5028975;28;20017;-33
2023/06/05 01:24:06;;;;;;;7.88;6.43;;;;;;;22.66;57.87;96483.06;5037069;28;20017;-33
2023/06/05 01:26:53;;;;;;;8.30;6.70;;;;;;;22.74;57.16;96484.06;5033814;28;20482;-32
2023/06/05 01:29:43;;;;;;;7.85;6.40;;;;;;;22.50;58.32;96479.06;5033475;28;20035;-33
2023/06/05 01:32:18;;;;;;;9.07;6.30;;;;;;;22.61;57.72;96483.09;5029352;28;20029;-33
2023/06/05 01:34:44;;;;;;;13.05;7.18;;;;;;;22.57;58.12;96488.84;5040881;28;20024;-32
2023/06/05 01:37:18;;;;;;;12.05;6.38;;;;;;;22.48;57.94;96478.06;5033818;28;20040;-33
2023/06/05 01:39:47;;;;;;;6.97;5.78;;;;;;;22.51;58.04;96482.56;5032522;28;20025;-33
2023/06/05 01:42:13;;;;;;;10.23;6.93;;;;;;;22.55;58.07;96483.84;5033518;28;20031;-32
2023/06/05 01:44:40;;;;;;;8.70;6.30;;;;;;;22.61;58.36;96485.84;5040882;28;20026;-33
2023/06/05 01:47:07;;;;;;;7.32;6.45;;;;;;;22.61;58.10;96483.09;5040997;28;20398;-34
2023/06/05 01:49:33;;;;;;;9.73;7.03;;;;;;;22.54;57.94;96485.09;5033280;28;20025;-33
2023/06/05 01:51:59;;;;;;;8.05;7.00;;;;;;;22.54;58.27;96490.63;5033645;28;20021;-33
2023/06/05 01:54:26;;;;;;;7.13;6.40;;;;;;;22.57;58.09;96484.09;5033335;28;20567;-33
2023/06/05 01:56:52;;;;;;;8.40;6.57;;;;;;;22.51;58.05;96488.84;5040620;28;20505;-33
2023/06/05 01:59:18;;;;;;;8.38;6.65;;;;;;;22.63;57.62;96483.31;5044040;28;20025;-32
2023/06/05 02:01:44;;;;;;;7.13;6.00;;;;;;;22.69;57.66;96486.81;5036403;28;20017;-33
2023/06/05 02:04:10;;;;;;;7.40;6.35;;;;;;;22.71;57.34;96493.38;5040072;28;20475;-33
2023/06/05 02:06:43;;;;;;;8.52;6.38;;;;;;;22.48;58.02;96492.66;5033075;28;20029;-33
2023/06/05 02:09:12;;;;;;;7.53;6.70;;;;;;;22.69;57.44;96492.34;5033956;28;20021;-32
2023/06/05 02:11:38;;;;;;;7.25;6.13;;;;;;;22.43;58.54;96487.88;5039166;28;20041;-33
2023/06/05 02:14:06;;;;;;;6.93;6.22;;;;;;;22.32;58.69;96481.59;5040077;28;20021;-33
2023/06/05 02:16:32;;;;;;;9.20;6.20;;;;;;;22.44;58.37;96470.03;5033203;28;20025;-33
2023/06/05 02:19:03;;;;;;;8.45;6.10;;;;;;;22.42;58.77;96475.31;5033282;28;20018;-33
2023/06/05 02:21:30;;;;;;;10.10;6.57;;;;;;;22.47;58.15;96469.03;5034708;28;20028;-34
2023/06/05 02:23:57;;;;;;;7.10;5.95;;;;;;;22.59;58.06;96472.53;5045535;28;20036;-33
2023/06/05 02:26:23;;;;;;;6.55;5.88;;;;;;;22.47;58.29;96466.25;5040238;28;20145;-33
2023/06/05 02:28:48;;;;;;;8.68;5.80;;;;;;;22.34;58.38;96460.50;5032840;28;20100;-32
2023/06/05 02:31:15;;;;;;;6.65;5.85;;;;;;;22.30;58.52;96456.47;5033251;28;20450;-32
2023/06/05 02:33:41;;;;;;;7.28;5.70;;;;;;;22.48;58.13;96453.94;5034606;28;20032;-33
2023/06/05 02:36:06;;;;;;;9.23;5.65;;;;;;;22.39;58.45;96459.72;5041743;28;20021;-33
2023/06/05 02:38:32;;;;;;;7.50;5.53;;;;;;;22.29;58.53;96455.72;5038115;28;20381;-33
2023/06/05 02:40:57;;;;;;;9.50;5.97;;;;;;;22.33;58.63;96456.22;5051191;28;20490;-33
2023/06/05 02:43:23;;;;;;;8.80;5.43;;;;;;;22.26;58.70;96461.50;5036143;28;20057;-33
2023/06/05 02:45:48;;;;;;;7.72;5.20;;;;;;;22.46;58.13;96452.94;5036587;28;20017;-33
2023/06/05 02:48:14;;;;;;;8.80;5.57;;;;;;;22.37;58.03;96473.31;5035205;28;20029;-33
2023/06/05 02:50:39;;;;;;;8.68;5.47;;;;;;;22.45;58.03;96460.47;5035984;28;20017;-33
2023/06/05 02:53:05;;;;;;;8.32;5.60;;;;;;;22.45;57.95;96456.97;5043870;28;20037;-33
2023/06/05 02:55:32;;;;;;;9.23;5.60;;;;;;;22.40;58.43;96449.44;5041953;28;20464;-32
2023/06/05 02:57:58;;;;;;;7.72;5.57;;;;;;;22.43;58.21;96449.19;5038339;28;20021;-32
2023/06/05 03:00:25;;;;;;;5.68;5.07;;;;;;;22.47;57.83;96441.41;5040977;28;20021;-32
2023/06/05 03:02:51;;;;;;;6.60;5.20;;;;;;;22.29;58.17;96443.91;5035768;28;20496;-33
2023/06/05 03:05:24;;;;;;;5.65;5.03;;;;;;;22.42;58.15;96441.38;5045272;28;20021;-33
2023/06/05 03:07:52;;;;;;;6.60;5.18;;;;;;;22.48;57.67;96442.91;5039373;28;20032;-33
2023/06/05 03:10:19;;;;;;;7.07;5.50;;;;;;;22.46;57.52;96431.59;5042988;28;20018;-32
2023/06/05 03:12:44;;;;;;;7.68;5.22;;;;;;;22.47;57.40;96427.56;5035904;28;20457;-32
2023/06/05 03:15:10;;;;;;;5.95;4.85;;;;;;;22.38;57.76;96436.09;5035646;28;20018;-33
2023/06/05 03:17:36;;;;;;;7.75;5.18;;;;;;;22.33;58.06;96427.84;5035974;28;20112;-33
2023/06/05 03:20:01;;;;;;;8.57;5.10;;;;;;;22.17;57.72;96424.59;5042600;28;20385;-32
2023/06/05 03:22:27;;;;;;;6.25;5.07;;;;;;;22.33;58.06;96420.31;5036164;28;20057;-32
2023/06/05 03:24:53;;;;;;;5.20;4.60;;;;;;;22.45;57.33;96424.56;5035633;28;20021;-32
2023/06/05 03:27:19;;;;;;;5.90;5.10;;;;;;;22.39;57.79;96421.03;5035324;28;20029;-32
2023/06/05 03:29:45;;;;;;;7.85;5.13;;;;;;;22.44;57.67;96416.78;5035496;28;20048;-32
2023/06/05 03:32:11;;;;;;;6.28;4.70;;;;;;;22.45;57.51;96415.50;5041710;28;20480;-33
2023/06/05 03:34:55;;;;;;;7.03;5.20;;;;;;;22.44;57.48;96420.28;5036269;28;20022;-34
2023/06/05 03:37:20;;;;;;;7.53;4.78;;;;;;;22.22;57.79;96423.09;5038732;28;20021;-32
2023/06/05 03:39:45;;;;;;;7.28;5.35;;;;;;;22.42;57.36;96417.28;5036897;28;20469;-32
2023/06/05 03:42:11;;;;;;;10.02;5.40;;;;;;;22.45;56.86;96424.56;5040867;28;20376;-33
2023/06/05 03:44:37;;;;;;;7.55;5.05;;;;;;;22.35;57.64;96422.56;5033349;28;20385;-32
2023/06/05 03:47:03;;;;;;;7.25;5.55;;;;;;;22.30;57.40;96420.56;5035074;28;20022;-33
2023/06/05 03:49:28;;;;;;;7.13;5.22;;;;;;;22.27;57.59;96411.25;5042228;28;20029;-33
2023/06/05 03:52:03;;;;;;;6.20;5.03;;;;;;;22.21;57.85;96421.59;5035142;28;20029;-34
2023/06/05 03:54:32;;;;;;;6.28;5.63;;;;;;;22.02;57.69;96415.03;5034918;28;20132;-32
2023/06/05 03:57:00;;;;;;;8.10;5.35;;;;;;;22.28;57.05;96412.78;5034154;28;20021;-33
2023/06/05 03:59:27;;;;;;;7.63;5.28;;;;;;;22.24;57.44;96415.06;5040529;28;20388;-32
2023/06/05 04:01:53;;;;;;;7.22;5.70;;;;;;;22.30;57.69;96410.25;5041782;28;20053;-33
2023/06/05 04:04:20;;;;;;;8.00;4.88;;;;;;;22.44;57.03;96400.94;5041602;28;20027;-33
2023/06/05 04:06:46;;;;;;;6.88;5.53;;;;;;;22.35;57.66;96403.22;5034562;28;20025;-33
2023/06/05 04:09:12;;;;;;;7.00;5.40;;;;;;;22.23;58.16;96410.03;5034792;28;20052;-33
2023/06/05 04:11:40;;;;;;;6.75;5.15;;;;;;;22.16;57.91;96408.50;5039269;28;20045;-33
2023/06/05 04:14:05;;;;;;;7.18;5.30;;;;;;;22.30;57.42;96399.22;5036924;28;20025;-32
2023/06/05 04:16:33;;;;;;;8.00;5.70;;;;;;;22.29;57.00;96413.53;5041378;28;20354;-32
2023/06/05 04:18:59;;;;;;;7.90;5.68;;;;;;;22.41;56.41;96407.47;5034735;28;20079;-33
2023/06/05 04:21:24;;;;;;;9.07;5.15;;;;;;;22.43;56.79;96415.25;5036148;28;20710;-32
2023/06/05 04:23:49;;;;;;;8.32;5.93;;;;;;;22.44;56.33;96419.53;5040379;28;20096;-33
2023/06/05 04:26:17;;;;;;;7.20;5.47;;;;;;;22.45;56.44;96421.78;5040992;28;20037;-33
2023/06/05 04:28:43;;;;;;;7.43;5.68;;;;;;;22.40;56.47;96422.53;5041635;28;20021;-33
2023/06/05 04:31:09;;;;;;;8.80;5.95;;;;;;;22.44;56.52;96423.06;5034374;28;20437;-33
2023/06/05 04:33:34;;;;;;;7.13;5.95;;;;;;;22.51;56.02;96427.28;5034389;28;20025;-33
2023/06/05 04:36:00;;;;;;;8.63;6.00;;;;;;;22.47;55.96;96426.81;5033886;28;20017;-32
2023/06/05 04:38:26;;;;;;;9.23;5.95;;;;;;;22.48;56.50;96433.84;5035192;28;20029;-33
2023/06/05 04:40:51;;;;;;;7.68;5.60;;;;;;;22.39;56.59;96431.34;5051124;28;20116;-32
2023/06/05 04:43:17;;;;;;;7.93;6.00;;;;;;;22.30;57.51;96435.13;5038758;28;20101;-33
2023/06/05 04:45:42;;;;;;;7.38;5.78;;;;;;;22.40;57.46;96439.13;5034705;28;20406;-33
2023/06/05 04:48:08;;;;;;;12.65;7.03;;;;;;;22.43;57.54;96434.59;5033809;28;20029;-32
2023/06/05 04:50:35;;;;;;;12.57;7.07;;;;;;;22.00;58.87;96440.44;5034307;28;20056;-32
2023/06/05 04:53:01;;;;;;;13.35;7.75;;;;;;;22.16;59.07;96436.13;5034207;28;20025;-33
2023/06/05 04:55:27;;;;;;;10.55;7.40;;;;;;;22.16;58.84;96436.88;5040228;28;20103;-33
2023/06/05 04:57:53;;;;;;;10.27;7.50;;;;;;;22.19;59.44;96424.09;5041089;28;20072;-32
2023/06/05 05:00:19;;;;;;;10.85;7.95;;;;;;;22.32;58.81;96434.63;5041005;28;20025;-32
2023/06/05 05:02:44;;;;;;;10.43;8.02;;;;;;;22.24;59.22;96431.63;5034052;28;20484;-32
2023/06/05 05:05:14;;;;;;;9.55;7.80;;;;;;;22.42;58.76;96420.03;5040620;28;20030;-33
2023/06/05 05:07:41;;;;;;;10.60;7.95;;;;;;;22.24;59.36;96420.56;5039108;28;20025;-32
2023/06/05 05:10:08;;;;;;;9.40;7.97;;;;;;;22.17;59.41;96418.31;5036014;28;20033;-33
2023/06/05 05:12:34;;;;;;;10.52;8.55;;;;;;;22.18;59.38;96425.34;5039881;28;20071;-33
2023/06/05 05:14:59;;;;;;;10.38;8.05;;;;;;;22.21;59.61;96416.81;5033970;28;20013;-33
2023/06/05 05:17:25;;;;;;;10.25;7.68;;;;;;;22.33;59.39;96417.53;5033905;28;20033;-32
2023/06/05 05:19:51;;;;;;;10.77;8.52;;;;;;;22.44;59.19;96423.06;5033628;28;20017;-33
2023/06/05 05:22:17;;;;;;;10.45;8.57;;;;;;;22.17;60.37;96429.34;5048349;28;20027;-33
2023/06/05 05:24:42;;;;;;;9.85;7.70;;;;;;;22.30;60.23;96426.09;5040695;28;20156;-32
2023/06/05 05:27:08;;;;;;;11.00;7.80;;;;;;;22.31;59.94;96427.59;5033569;28;20063;-34
2023/06/05 05:29:33;;;;;;;12.15;7.97;;;;;;;22.34;59.75;96432.13;5033664;28;20365;-33
2023/06/05 05:31:59;;;;;;;12.25;8.60;;;;;;;22.24;60.13;96428.88;5031826;28;20037;-32
2023/06/05 05:34:25;;;;;;;13.85;8.02;;;;;;;22.11;60.09;96425.88;5033155;28;20481;-33
2023/06/05 05:36:50;;;;;;;10.32;7.25;;;;;;;22.14;60.64;96433.13;5036089;28;20018;-33
2023/06/05 05:39:17;;;;;;;12.93;7.55;;;;;;;22.20;60.34;96431.13;5037978;28;20025;-33
2023/06/05 05:41:43;;;;;;;12.23;7.70;;;;;;;22.36;60.03;96432.38;5033509;28;20025;-32
2023/06/05 05:44:08;;;;;;;8.05;6.82;;;;;;;22.28;59.74;96434.13;5033546;28;20120;-32
2023/06/05 05:46:33;;;;;;;10.40;7.20;;;;;;;22.20;60.13;96431.88;5033310;28;20029;-32
2023/06/05 05:48:59;;;;;;;8.70;7.00;;;;;;;22.25;60.17;96441.44;5033764;28;20016;-33
2023/06/05 05:51:25;;;;;;;7.25;6.45;;;;;;;22.19;59.76;96435.88;5038910;28;20064;-34
2023/06/05 05:53:50;;;;;;;8.40;7.00;;;;;;;22.37;59.58;96440.16;5040701;28;20017;-32
2023/06/05 05:56:16;;;;;;;9.25;6.53;;;;;;;22.15;60.08;96442.91;5033278;28;20042;-33
2023/06/05 05:58:43;;;;;;;7.15;6.40;;;;;;;22.20;59.92;96439.41;5040436;28;20104;-33
2023/06/05 06:01:08;;;;;;;11.43;6.57;;;;;;;22.44;59.38;96447.91;5033313;28;20035;-33
2023/06/05 06:03:37;;;;;;;7.18;6.38;;;;;;;22.10;59.86;96454.72;5033611;28;20022;-33
2023/06/05 06:06:06;;;;;;;8.43;6.00;;;;;;;22.28;59.54;96451.44;5033632;28;20079;-32
2023/06/05 06:08:33;;;;;;;7.60;6.70;;;;;;;22.21;60.22;96451.97;5042356;28;20022;-33
2023/06/05 06:10:59;;;;;;;8.85;5.90;;;;;;;22.40;59.77;96449.44;5036518;28;20093;-34
2023/06/05 06:13:24;;;;;;;8.57;5.80;;;;;;;22.39;59.70;96447.91;5043555;28;20096;-34
2023/06/05 06:15:50;;;;;;;9.90;5.53;;;;;;;22.28;59.69;96459.72;5036938;28;20018;-33
2023/06/05 06:18:16;;;;;;;8.82;5.68;;;;;;;22.33;59.90;96461.00;5044458;28;20017;-33
2023/06/05 06:20:41;;;;;;;9.35;6.07;;;;;;;22.30;60.30;96456.47;5043899;28;20025;-32
2023/06/05 06:23:07;;;;;;;8.98;5.90;;;;;;;22.26;60.12;96461.50;5044018;28;20029;-32
2023/06/05 06:25:32;;;;;;;9.95;6.38;;;;;;;22.36;59.76;96460.00;5036963;28;20037;-32
2023/06/05 06:27:59;;;;;;;9.77;5.50;;;;;;;22.23;59.83;96463.28;5036464;28;20017;-33
2023/06/05 06:30:27;;;;;;;9.98;5.47;;;;;;;22.35;59.74;96458.50;5036548;28;20040;-33
2023/06/05 06:32:53;;;;;;;7.32;5.38;;;;;;;22.48;59.46;96462.25;5040008;28;20025;-33
2023/06/05 06:35:19;;;;;;;8.77;5.28;;;;;;;22.25;60.22;96465.53;5040104;28;20032;-33
2023/06/05 06:37:45;;;;;;;10.68;5.70;;;;;;;22.23;59.91;96468.03;5044014;28;20029;-33
2023/06/05 06:40:11;;;;;;;9.95;5.38;;;;;;;22.26;59.98;96472.53;5041725;28;20028;-33
2023/06/05 06:42:37;;;;;;;6.88;5.00;;;;;;;22.43;59.49;96476.81;5035056;28;20021;-33
2023/06/05 06:45:04;;;;;;;6.70;4.97;;;;;;;22.29;59.82;96474.31;5039394;28;20464;-32
2023/06/05 06:47:30;;;;;;;7.78;5.45;;;;;;;22.37;59.65;96475.31;5047057;28;20056;-33
2023/06/05 06:49:56;;;;;;;7.18;4.85;;;;;;;22.44;60.04;96483.84;5043250;28;20072;-33
2023/06/05 06:52:22;;;;;;;6.55;4.85;;;;;;;22.35;60.00;96481.34;5036262;28;20377;-33
2023/06/05 06:54:48;;;;;;;6.10;5.13;;;;;;;22.32;60.43;96479.59;5035781;28;20046;-33
2023/06/05 06:57:13;;;;;;;6.07;4.43;;;;;;;22.44;59.85;96481.09;5036218;28;20441;-32
2023/06/05 06:59:42;;;;;;;6.10;4.88;;;;;;;22.44;60.08;96483.84;5042426;28;20021;-33
2023/06/05 07:02:10;;;;;;;5.38;4.50;;;;;;;22.58;59.24;96482.06;5037832;28;20032;-33
2023/06/05 07:04:36;;;;;;;5.93;4.68;;;;;;;22.43;60.06;96473.28;5047993;28;20060;-32
2023/06/05 07:07:02;;;;;;;5.38;4.28;;;;;;;22.37;60.04;96478.09;5036206;28;20017;-33
2023/06/05 07:09:28;;;;;;;5.65;4.30;;;;;;;22.39;60.09;96486.59;5035827;28;20028;-33
2023/06/05 07:11:56;;;;;;;6.38;4.60;;;;;;;22.54;59.77;96479.56;5035786;28;20362;-32
2023/06/05 07:14:22;;;;;;;5.80;4.53;;;;;;;22.57;60.06;96486.09;5043295;28;20045;-33
2023/06/05 07:16:48;;;;;;;10.57;5.00;;;;;;;22.41;61.27;96484.84;5042787;28;20421;-33
2023/06/05 07:19:15;;;;;;;10.55;4.95;;;;;;;22.51;61.06;96475.03;5035224;28;20029;-33
2023/06/05 07:21:41;;;;;;;5.93;4.72;;;;;;;22.48;61.52;96473.31;5039207;28;20028;-32
2023/06/05 07:24:07;;;;;;;11.68;5.13;;;;;;;22.23;62.21;96473.56;5039263;28;20025;-33
2023/06/05 07:26:33;;;;;;;6.88;4.43;;;;;;;22.35;61.90;96480.59;5042694;28;20112;-33
2023/06/05 07:28:58;;;;;;;6.22;4.97;;;;;;;22.41;61.78;96484.09;5040427;28;20108;-33
2023/06/05 07:31:24;;;;;;;6.90;4.82;;;;;;;22.41;62.13;96479.31;5037557;28;20409;-33
2023/06/05 07:33:49;;;;;;;6.38;4.70;;;;;;;22.40;62.60;96483.34;5035512;28;20029;-32
2023/06/05 07:36:15;;;;;;;7.20;4.45;;;;;;;22.36;61.92;96491.16;5035566;28;20026;-34
2023/06/05 07:38:41;;;;;;;5.68;4.53;;;;;;;22.39;62.46;96481.81;5035423;28;20025;-32
2023/06/05 07:41:10;;;;;;;8.95;5.15;;;;;;;22.54;61.80;96484.34;5042500;28;20021;-33
2023/06/05 07:43:39;;;;;;;5.45;4.45;;;;;;;22.38;62.81;96480.31;5042687;28;20083;-34
2023/06/05 07:46:05;;;;;;;6.03;4.32;;;;;;;22.36;63.47;96480.09;5041557;28;20027;-33
2023/06/05 07:48:30;;;;;;;6.30;4.15;;;;;;;22.35;62.83;96480.59;5035177;28;20473;-32
2023/06/05 07:50:56;;;;;;;5.28;4.25;;;;;;;22.41;62.79;96473.03;5035223;28;20029;-34
2023/06/05 07:53:22;;;;;;;5.15;4.65;;;;;;;22.43;62.26;96476.81;5033898;28;20036;-32
2023/06/05 07:55:48;;;;;;;6.30;4.38;;;;;;;22.05;64.10;96478.31;5034236;28;20038;-33
2023/06/05 07:58:15;;;;;;;6.93;4.47;;;;;;;22.24;63.39;96475.81;5038004;28;20028;-33
2023/06/05 08:00:47;;;;;;;5.35;4.00;;;;;;;22.05;64.48;96474.81;5037381;28;20453;-32
2023/06/05 08:03:19;;;;;;;5.13;4.25;;;;;;;22.32;63.16;96474.06;5044031;28;20029;-32
2023/06/05 08:05:49;;;;;;;9.05;4.57;;;;;;;22.37;62.65;96475.31;5038927;28;20436;-33
2023/06/05 08:08:15;;;;;;;6.32;3.85;;;;;;;22.27;63.52;96474.81;5036578;28;20412;-33
2023/06/05 08:10:41;;;;;;;8.15;4.47;;;;;;;22.41;62.25;96479.31;5047753;28;20022;-33
2023/06/05 08:13:09;;;;;;;6.00;4.47;;;;;;;22.25;63.20;96473.81;5042115;28;20051;-33
2023/06/05 08:15:34;;;;;;;5.65;4.28;;;;;;;22.28;63.11;96475.56;5034729;28;20018;-32
2023/06/05 08:18:00;;;;;;;9.13;4.28;;;;;;;22.45;62.89;96477.06;5034701;28;20477;-32
2023/06/05 08:20:25;;;;;;;6.75;4.20;;;;;;;22.33;63.52;96475.56;5034472;28;20037;-32
2023/06/05 08:22:51;;;;;;;8.30;5.03;;;;;;;21.99;65.30;96474.81;5034204;28;20014;-33
2023/06/05 08:25:16;;;;;;;8.73;5.15;;;;;;;22.17;64.54;96476.31;5040442;28;20393;-33
2023/06/05 08:27:42;;;;;;;11.48;5.10;;;;;;;22.46;63.75;96475.81;5034682;28;20052;-32
2023/06/05 08:30:08;;;;;;;8.25;4.70;;;;;;;22.42;63.82;96474.53;5033242;28;20017;-33
2023/06/05 08:32:33;;;;;;;11.00;5.82;;;;;;;22.28;64.76;96479.06;5034710;28;20389;-32
2023/06/05 08:34:59;;;;;;;6.38;4.07;;;;;;;22.46;63.59;96478.56;5033083;28;20026;-34
2023/06/05 08:37:25;;;;;;;7.50;3.95;;;;;;;22.42;63.80;96477.31;5033951;28;20429;-33
2023/06/05 08:39:51;;;;;;;7.28;4.25;;;;;;;22.12;64.93;96477.09;5043965;28;20055;-33
2023/06/05 08:42:18;;;;;;;7.82;4.22;;;;;;;22.25;64.51;96488.38;5038854;28;20021;-32
2023/06/05 08:44:47;;;;;;;8.43;4.05;;;;;;;22.15;64.79;96489.88;5034905;28;20487;-33
2023/06/05 08:47:15;;;;;;;6.53;3.38;;;;;;;22.17;65.03;96487.38;5040049;28;20426;-34
2023/06/05 08:49:41;;;;;;;4.15;3.35;;;;;;;22.17;64.51;96488.13;5030805;28;20448;-33
2023/06/05 08:52:09;;;;;;;5.25;3.60;;;;;;;22.10;64.91;96490.63;5041262;28;20029;-32
2023/06/05 08:54:38;;;;;;;5.22;3.53;;;;;;;22.15;64.73;96487.09;5040236;28;20045;-33
2023/06/05 08:57:06;;;;;;;4.60;3.17;;;;;;;22.28;64.13;96470.78;5033988;28;20036;-33
2023/06/05 08:59:32;;;;;;;5.57;3.58;;;;;;;22.27;64.52;96474.03;5033927;28;20026;-32
2023/06/05 09:01:58;;;;;;;5.10;3.60;;;;;;;22.39;64.61;96479.06;5034079;28;20071;-32
2023/06/05 09:04:24;;;;;;;3.85;3.03;;;;;;;22.21;65.04;96472.06;5044124;28;20435;-32
2023/06/05 09:06:53;;;;;;;3.40;2.50;;;;;;;22.57;64.04;96477.81;5037170;28;20044;-33
2023/06/05 09:09:19;;;;;;;3.50;2.63;;;;;;;22.47;64.18;96471.03;5034275;28;20388;-34
2023/06/05 09:11:45;;;;;;;3.72;3.05;;;;;;;22.48;64.55;96467.03;5032738;28;20029;-32
2023/06/05 09:14:10;;;;;;;3.38;2.67;;;;;;;22.41;66.18;96468.25;5034040;28;20025;-33
2023/06/05 09:16:44;;;;;;;6.63;2.90;;;;;;;22.48;66.15;96467.78;5033594;28;20045;-33
2023/06/05 09:19:11;;;;;;;3.13;2.30;;;;;;;22.60;65.77;96465.00;5040167;28;20436;-33
2023/06/05 09:21:36;;;;;;;5.55;2.88;;;;;;;22.53;66.51;96469.75;5044175;28;20032;-33
2023/06/05 09:24:14;;;;;;;3.88;2.45;;;;;;;22.56;65.22;96468.00;5043815;28;20477;-33
2023/06/05 09:26:53;;;;;;;4.55;2.53;;;;;;;22.43;64.68;96470.53;5040374;28;20053;-33
2023/06/05 09:29:22;;;;;;;3.42;2.55;;;;;;;22.37;65.29;96470.56;5033545;28;20033;-33
2023/06/05 09:31:48;;;;;;;4.72;2.70;;;;;;;22.56;63.89;96468.00;5018856;28;20044;-33
2023/06/05 09:34:31;;;;;;;3.08;2.50;;;;;;;22.56;64.50;96474.28;5042909;28;20436;-32
2023/06/05 09:37:01;;;;;;;4.20;2.92;;;;;;;22.55;65.11;96466.50;5026465;28;20025;-32
2023/06/05 09:39:28;;;;;;;5.38;2.92;;;;;;;22.47;65.69;96469.03;5033161;28;20026;-34
2023/06/05 09:41:56;;;;;;;4.57;2.95;;;;;;;22.33;65.77;96475.56;5025783;28;20033;-32
2023/06/05 09:44:22;;;;;;;4.03;3.60;;;;;;;22.33;67.10;96466.53;5043295;28;20021;-33
2023/06/05 09:47:05;;;;;;;7.13;3.50;;;;;;;22.65;65.35;96469.75;5046285;28;20029;-33
2023/06/05 09:49:45;;;;;;;4.88;3.55;;;;;;;22.69;64.20;96459.19;5047455;28;20059;-33
2023/06/05 09:52:13;;;;;;;4.95;3.53;;;;;;;22.41;65.81;96465.50;5030759;28;20055;-33
2023/06/05 09:54:41;;;;;;;3.80;3.40;;;;;;;22.51;65.57;96466.75;5037009;28;20045;-33
2023/06/05 09:57:12;;;;;;;8.05;4.07;;;;;;;22.51;65.80;96463.97;5039706;28;20021;-33
2023/06/05 09:59:54;;;;;;;9.90;5.10;;;;;;;22.63;66.19;96463.97;5041911;28;20028;-34
2023/06/05 10:02:22;;;;;;;7.82;4.25;;;;;;;22.42;66.56;96463.50;5037225;28;20021;-33
2023/06/05 10:04:59;;;;;;;7.32;4.35;;;;;;;22.44;66.99;96460.97;5044141;28;20109;-32
2023/06/05 10:07:25;;;;;;;8.68;4.68;;;;;;;22.66;65.19;96465.72;5030137;28;20366;-32
2023/06/05 10:09:50;;;;;;;8.38;4.65;;;;;;;22.57;65.82;96459.22;5037209;28;20040;-33
2023/06/05 10:12:17;;;;;;;7.63;4.88;;;;;;;22.58;66.17;96460.72;5044206;28;20530;-33
2023/06/05 10:14:43;;;;;;;8.43;4.50;;;;;;;22.54;66.02;96454.69;5036814;28;20021;-32
2023/06/05 10:17:12;;;;;;;7.82;4.78;;;;;;;22.62;65.64;96454.19;5036880;28;20066;-33
2023/06/05 10:19:41;;;;;;;7.13;4.60;;;;;;;22.58;66.16;96449.66;5029701;28;20021;-33
2023/06/05 10:22:07;;;;;;;6.28;4.13;;;;;;;22.61;66.17;96449.91;5044300;28;20031;-33
2023/06/05 10:24:35;;;;;;;5.20;4.00;;;;;;;22.43;67.83;96440.13;5043810;28;20029;-33
2023/06/05 10:27:20;;;;;;;6.07;4.25;;;;;;;22.53;66.75;96449.66;5042299;28;20102;-33
2023/06/05 10:30:08;;;;;;;7.00;4.88;;;;;;;22.83;66.30;96442.34;5029277;28;20025;-33
2023/06/05 10:32:59;;;;;;;9.07;5.03;;;;;;;22.53;68.82;96452.41;5036599;28;20393;-32
2023/06/05 10:35:46;;;;;;;6.90;4.32;;;;;;;22.58;68.10;96446.91;5036011;28;20017;-33
2023/06/05 10:38:21;;;;;;;9.25;4.97;;;;;;;22.70;65.79;96441.34;5038834;28;20104;-33
2023/06/05 10:41:00;;;;;;;9.18;5.25;;;;;;;22.72;66.31;96438.81;5036454;28;20021;-32
2023/06/05 10:43:31;;;;;;;9.32;4.80;;;;;;;22.83;65.87;96436.81;5034855;28;20036;-33
2023/06/05 10:46:21;;;;;;;9.55;4.45;;;;;;;22.69;67.39;96429.53;5042867;28;20033;-34
2023/06/05 10:49:07;;;;;;;7.07;4.45;;;;;;;22.71;66.67;96415.94;5029462;28;20037;-32
2023/06/05 10:51:44;;;;;;;7.53;5.35;;;;;;;22.71;66.88;96426.25;5036158;28;20377;-33
2023/06/05 10:54:17;;;;;;;8.13;5.45;;;;;;;22.56;66.53;96443.88;5034468;28;20112;-33
2023/06/05 10:56:56;;;;;;;7.50;4.78;;;;;;;22.48;66.63;96459.47;5043371;28;20043;-32
2023/06/05 10:59:26;;;;;;;11.38;5.72;;;;;;;22.47;66.61;96459.97;5029996;28;20025;-33
2023/06/05 11:02:16;;;;;;;7.70;4.93;;;;;;;22.50;66.55;96456.22;5035737;28;20496;-32
2023/06/05 11:04:46;;;;;;;7.43;4.35;;;;;;;22.43;66.53;96465.00;5039358;28;20105;-34
2023/06/05 11:07:17;;;;;;;8.10;4.32;;;;;;;22.35;66.70;96464.78;5043427;28;20025;-33
2023/06/05 11:10:01;;;;;;;9.10;4.28;;;;;;;22.53;66.31;96457.94;5041284;28;20482;-33
2023/06/05 11:12:47;;;;;;;7.90;4.30;;;;;;;22.54;66.70;96454.69;5035849;28;20071;-32
2023/06/05 11:15:33;;;;;;;5.47;3.55;;;;;;;22.42;66.26;96463.50;5035786;28;20029;-33
2023/06/05 11:18:32;;;;;;;6.60;3.17;;;;;;;22.76;64.74;96458.69;5035666;28;20021;-33
2023/06/05 11:21:00;;;;;;;7.50;4.15;;;;;;;22.67;64.66;96461.69;5031713;28;20451;-32
2023/06/05 11:23:27;;;;;;;7.63;3.50;;;;;;;22.52;65.40;96459.22;5050332;28;20025;-33
2023/06/05 11:25:56;;;;;;;4.90;3.80;;;;;;;22.49;65.58;96455.47;5035637;28;20461;-32
2023/06/05 11:28:42;;;;;;;6.97;4.57;;;;;;;22.40;66.01;96441.88;5035565;28;20477;-33
2023/06/05 11:31:08;;;;;;;5.68;3.35;;;;;;;22.56;65.56;96438.34;5035709;28;20029;-33
2023/06/05 11:33:34;;;;;;;6.05;3.58;;;;;;;22.53;65.08;96433.84;5036067;28;20025;-32
2023/06/05 11:36:02;;;;;;;5.80;3.38;;;;;;;22.59;65.23;96433.84;5039544;28;20021;-32